Time;durP1;ratioP1;P1;durP2;ratioP2;P2;SDS_P1;SDS_P2;PMS_P1;PMS_P2;Temp;Humidity;BMP_temperature;BMP_pressure;BME280_temperature;BME280_humidity;BME280_pressure;Samples;Min_cycle;Max_cycle;Signal;HPM_P1;HPM_P2
2022/04/09 00:02:07;;;;;;;14.75;2.83;;;;;;;2.92;82.73;100347.31;5110213;28;20111;-71
2022/04/09 00:04:32;;;;;;;15.73;2.95;;;;;;;2.91;82.74;100347.41;5107255;28;20071;-71
2022/04/09 00:06:57;;;;;;;10.15;2.65;;;;;;;2.87;82.79;100345.81;5102100;28;20082;-70
2022/04/09 00:09:23;;;;;;;18.90;3.88;;;;;;;2.88;82.75;100352.91;5093131;28;20067;-73
2022/04/09 00:11:48;;;;;;;18.80;2.83;;;;;;;2.91;83.01;100358.16;5080684;28;20080;-70
2022/04/09 00:14:14;;;;;;;16.10;3.17;;;;;;;2.91;82.90;100363.53;5097877;28;20031;-71
2022/04/09 00:16:40;;;;;;;12.18;2.03;;;;;;;2.90;82.49;100368.03;5092303;28;20051;-71
2022/04/09 00:19:05;;;;;;;11.10;1.98;;;;;;;2.89;82.85;100368.09;5094131;28;20089;-70
2022/04/09 00:21:31;;;;;;;12.20;2.72;;;;;;;2.88;82.92;100379.78;5102793;28;20028;-72
2022/04/09 00:23:57;;;;;;;8.23;2.75;;;;;;;2.85;82.91;100383.50;5096980;28;20039;-69
2022/04/09 00:26:22;;;;;;;11.50;2.00;;;;;;;2.88;82.23;100390.53;5102818;28;20441;-71
2022/04/09 00:28:48;;;;;;;13.45;2.22;;;;;;;2.87;82.63;100389.66;5102728;28;20502;-72
2022/04/09 00:31:13;;;;;;;15.27;2.70;;;;;;;2.87;83.15;100399.53;5105552;28;20035;-70
2022/04/09 00:33:38;;;;;;;13.10;2.63;;;;;;;2.85;82.26;100396.06;5104791;28;20070;-71
2022/04/09 00:36:04;;;;;;;9.48;2.30;;;;;;;2.84;82.02;100400.53;5089789;28;20445;-70
2022/04/09 00:38:29;;;;;;;14.65;2.65;;;;;;;2.81;82.62;100409.63;5093176;28;20040;-72
2022/04/09 00:40:55;;;;;;;10.30;2.65;;;;;;;2.77;82.68;100416.09;5088175;28;20073;-69
2022/04/09 00:43:21;;;;;;;7.63;2.05;;;;;;;2.78;82.28;100416.97;5087953;28;20505;-71
2022/04/09 00:45:48;;;;;;;15.02;3.30;;;;;;;2.76;82.61;100421.53;5097787;27;20031;-71
2022/04/09 00:48:14;;;;;;;15.10;2.20;;;;;;;2.76;82.45;100421.53;5097997;28;20020;-70
2022/04/09 00:50:39;;;;;;;15.48;2.50;;;;;;;2.76;82.40;100433.16;5099633;28;20063;-70
2022/04/09 00:53:07;;;;;;;9.75;2.30;;;;;;;2.74;82.52;100434.16;5096015;27;20126;-71
2022/04/09 00:58:19;;;;;;;16.60;3.15;;;;;;;2.72;82.71;100444.13;5095284;28;20491;-70
2022/04/09 01:00:45;;;;;;;13.07;2.70;;;;;;;2.71;82.68;100447.75;5098090;28;20030;-71
2022/04/09 01:03:13;;;;;;;11.90;3.15;;;;;;;2.68;82.94;100446.06;5099114;28;20035;-70
2022/04/09 01:05:41;;;;;;;11.65;2.25;;;;;;;2.64;82.66;100443.59;5088393;28;20050;-70
2022/04/09 01:08:06;;;;;;;7.75;2.40;;;;;;;2.65;82.26;100454.25;5088416;28;20039;-72
2022/04/09 01:10:32;;;;;;;17.02;3.55;;;;;;;2.64;82.91;100463.25;5093079;28;20057;-70
2022/04/09 01:12:59;;;;;;;10.93;2.55;;;;;;;2.64;82.40;100460.56;5073029;28;20578;-71
2022/04/09 01:15:24;;;;;;;9.38;2.40;;;;;;;2.63;82.51;100476.75;5095442;28;20390;-70
2022/04/09 01:17:49;;;;;;;10.07;2.80;;;;;;;2.59;83.07;100470.66;5101902;28;20038;-71
2022/04/09 01:20:20;;;;;;;13.68;2.78;;;;;;;2.59;83.00;100477.84;5107140;28;20024;-70
2022/04/09 01:22:48;;;;;;;9.90;2.83;;;;;;;2.58;82.91;100481.47;5081255;28;20059;-70
2022/04/09 01:25:14;;;;;;;6.30;2.20;;;;;;;2.54;83.21;100486.09;5100201;28;20111;-69
2022/04/09 01:27:41;;;;;;;11.77;2.95;;;;;;;2.50;83.06;100498.78;5108696;28;20089;-72
2022/04/09 01:30:07;;;;;;;16.80;2.95;;;;;;;2.45;83.12;100495.44;5107177;28;20016;-70
2022/04/09 01:32:33;;;;;;;10.65;2.40;;;;;;;2.43;83.44;100500.03;5091851;28;20394;-70
2022/04/09 01:35:03;;;;;;;18.58;2.60;;;;;;;2.42;83.09;100503.63;5105017;28;20028;-71
2022/04/09 01:37:31;;;;;;;10.55;2.33;;;;;;;2.40;83.50;100499.28;5097745;28;20186;-70
2022/04/09 01:39:57;;;;;;;12.70;3.67;;;;;;;2.38;83.64;100507.41;5096754;28;20024;-70
2022/04/09 01:42:26;;;;;;;13.73;3.00;;;;;;;2.36;83.92;100509.28;5102070;28;20115;-70
2022/04/09 01:44:52;;;;;;;14.60;2.78;;;;;;;2.35;83.92;100512.91;5096517;28;20367;-70
2022/04/09 01:47:17;;;;;;;13.43;2.22;;;;;;;2.38;83.96;100519.94;5106947;28;20027;-70
2022/04/09 01:49:43;;;;;;;13.60;2.33;;;;;;;2.38;84.27;100539.63;5094118;28;20019;-70
2022/04/09 01:52:08;;;;;;;7.35;2.28;;;;;;;2.42;83.60;100532.28;5101247;28;20043;-70
2022/04/09 01:54:34;;;;;;;22.42;2.70;;;;;;;2.38;83.86;100534.25;5096281;28;20097;-72
2022/04/09 01:57:00;;;;;;;21.23;2.60;;;;;;;2.44;83.98;100539.34;5088134;28;20391;-69
2022/04/09 01:59:25;;;;;;;12.55;2.58;;;;;;;2.44;83.53;100535.78;5102515;28;20051;-70
2022/04/09 02:01:51;;;;;;;14.23;2.28;;;;;;;2.46;83.96;100541.94;5099182;28;20050;-71
2022/04/09 02:04:17;;;;;;;10.07;2.63;;;;;;;2.44;83.57;100550.09;5110362;28;20067;-70
2022/04/09 02:06:43;;;;;;;9.13;2.22;;;;;;;2.45;83.02;100553.63;5101133;28;20053;-70
2022/04/09 02:09:12;;;;;;;10.77;1.90;;;;;;;2.45;83.48;100564.38;5096966;28;20020;-70
2022/04/09 02:11:41;;;;;;;18.25;2.78;;;;;;;2.42;83.51;100562.69;5104836;28;20032;-72
2022/04/09 02:14:09;;;;;;;8.00;2.40;;;;;;;2.39;83.48;100561.97;5113629;28;20061;-72
2022/04/09 02:16:35;;;;;;;11.02;2.33;;;;;;;2.34;83.33;100562.16;5103965;28;20077;-69
2022/04/09 02:19:00;;;;;;;11.35;2.30;;;;;;;2.35;83.15;100571.94;5102887;28;20042;-70
2022/04/09 02:21:26;;;;;;;11.07;2.88;;;;;;;2.34;83.05;100575.59;5106702;28;20020;-72
2022/04/09 02:23:52;;;;;;;11.35;2.17;;;;;;;2.30;83.18;100577.53;5087863;28;20039;-70
2022/04/09 02:26:17;;;;;;;10.02;2.70;;;;;;;2.30;83.33;100590.06;5095291;28;20040;-70
2022/04/09 02:28:46;;;;;;;12.98;2.15;;;;;;;2.27;83.81;100584.81;5093366;28;20118;-70
2022/04/09 02:31:12;;;;;;;13.38;2.63;;;;;;;2.24;84.14;100585.84;5111907;28;20020;-69
2022/04/09 02:33:39;;;;;;;9.48;2.50;;;;;;;2.28;84.15;100591.94;5090569;28;20036;-70
2022/04/09 02:36:06;;;;;;;8.45;2.08;;;;;;;2.27;83.72;100595.56;5108743;28;20084;-70
2022/04/09 02:38:31;;;;;;;13.55;2.50;;;;;;;2.24;83.75;100601.06;5107215;28;20066;-70
2022/04/09 02:40:59;;;;;;;7.65;2.33;;;;;;;2.24;83.21;100611.81;5099113;28;20024;-69
2022/04/09 02:43:24;;;;;;;19.17;2.92;;;;;;;2.27;84.42;100617.03;5109973;28;20483;-71
2022/04/09 02:45:50;;;;;;;13.00;3.15;;;;;;;2.31;84.00;100624.03;5100543;28;20076;-71
2022/04/09 02:48:16;;;;;;;14.05;2.38;;;;;;;2.32;84.38;100611.47;5102747;28;20043;-70
2022/04/09 02:50:41;;;;;;;10.35;3.28;;;;;;;2.35;84.21;100619.41;5091851;28;20028;-72
2022/04/09 02:53:09;;;;;;;5.43;1.90;;;;;;;2.37;83.44;100614.81;5098330;28;20031;-72
2022/04/09 02:55:35;;;;;;;11.05;1.90;;;;;;;2.47;83.53;100621.53;5099986;28;20059;-68
2022/04/09 02:58:01;;;;;;;19.33;2.33;;;;;;;2.41;82.89;100613.75;5094412;27;20122;-69
2022/04/09 03:00:29;;;;;;;8.25;1.98;;;;;;;2.46;82.67;100628.72;5103546;28;20031;-71
2022/04/09 03:02:55;;;;;;;9.70;1.77;;;;;;;2.47;82.27;100641.25;5108585;28;20050;-69
2022/04/09 03:05:29;;;;;;;10.30;1.85;;;;;;;2.44;82.48;100641.38;5101430;28;20063;-72
2022/04/09 03:07:55;;;;;;;6.63;2.50;;;;;;;2.42;82.45;100639.66;5096321;28;20150;-70
2022/04/09 03:10:20;;;;;;;9.02;1.90;;;;;;;2.40;82.23;100647.78;5102565;28;20088;-70
2022/04/09 03:12:47;;;;;;;6.72;1.70;;;;;;;2.39;82.46;100648.75;5111649;28;20038;-70
2022/04/09 03:15:15;;;;;;;6.45;1.52;;;;;;;2.36;83.03;100648.84;5109114;28;20436;-72
2022/04/09 03:17:41;;;;;;;13.30;1.83;;;;;;;2.35;83.22;100656.97;5101306;28;20122;-70
2022/04/09 03:20:08;;;;;;;5.60;1.92;;;;;;;2.32;83.36;100660.66;5108948;28;20032;-71
2022/04/09 03:22:34;;;;;;;6.22;2.03;;;;;;;2.32;83.17;100660.66;5100973;28;20438;-72
2022/04/09 03:25:02;;;;;;;6.32;2.20;;;;;;;2.30;83.58;100666.09;5096798;28;20028;-71
2022/04/09 03:27:29;;;;;;;5.50;1.67;;;;;;;2.29;83.45;100680.47;5111147;28;20024;-71
2022/04/09 03:29:57;;;;;;;9.18;2.58;;;;;;;2.27;83.74;100676.94;5101633;28;20111;-70
2022/04/09 03:32:22;;;;;;;6.22;2.00;;;;;;;2.23;83.62;100674.44;5109510;28;20115;-70
2022/04/09 03:34:48;;;;;;;5.40;1.60;;;;;;;2.17;83.76;100678.25;5108448;28;20036;-71
2022/04/09 03:37:14;;;;;;;17.95;3.03;;;;;;;2.17;83.66;100680.06;5076481;28;20031;-70
2022/04/09 03:39:41;;;;;;;14.20;2.15;;;;;;;2.13;83.58;100676.63;5094825;28;20032;-70
2022/04/09 03:42:07;;;;;;;16.40;2.78;;;;;;;2.11;83.90;100683.88;5110401;28;20030;-70
2022/04/09 03:44:33;;;;;;;7.80;2.08;;;;;;;2.09;84.12;100684.88;5110691;28;20402;-70
2022/04/09 03:47:00;;;;;;;10.35;1.77;;;;;;;2.07;83.71;100684.06;5094469;28;20032;-70
2022/04/09 03:49:28;;;;;;;14.48;2.58;;;;;;;2.04;84.11;100693.09;5092486;28;20383;-71
2022/04/09 03:51:54;;;;;;;23.75;3.92;;;;;;;2.00;84.05;100695.03;5092031;28;20028;-72
2022/04/09 03:54:21;;;;;;;7.72;2.92;;;;;;;1.98;84.07;100696.03;5086288;28;20032;-72
2022/04/09 03:56:49;;;;;;;16.70;2.28;;;;;;;1.91;83.66;100699.88;5089843;28;20039;-72
2022/04/09 03:59:17;;;;;;;7.68;2.33;;;;;;;1.88;83.89;100700.88;5073426;28;20040;-69
2022/04/09 04:01:47;;;;;;;6.85;1.70;;;;;;;1.80;83.88;100703.00;5109485;28;20110;-72
2022/04/09 04:04:13;;;;;;;9.88;2.17;;;;;;;1.77;84.36;100713.81;5110154;28;20031;-71
2022/04/09 04:06:43;;;;;;;10.27;1.85;;;;;;;1.73;84.38;100714.91;5087069;28;20023;-72
2022/04/09 04:09:10;;;;;;;15.63;2.50;;;;;;;1.67;84.41;100715.13;5105976;28;20027;-72
2022/04/09 04:11:36;;;;;;;9.48;2.20;;;;;;;1.68;84.59;100724.91;5104016;28;20487;-70
2022/04/09 04:14:01;;;;;;;13.38;2.47;;;;;;;1.68;84.86;100724.91;5097253;28;20043;-69
2022/04/09 04:16:28;;;;;;;14.48;2.47;;;;;;;1.66;84.48;100724.09;5087389;28;20471;-69
2022/04/09 04:18:54;;;;;;;7.15;1.98;;;;;;;1.66;84.56;100729.47;5102417;28;20024;-69
2022/04/09 04:21:19;;;;;;;10.65;2.22;;;;;;;1.65;84.50;100744.69;5105358;28;20559;-72
2022/04/09 04:23:53;;;;;;;7.57;2.10;;;;;;;1.65;84.83;100746.47;5106054;28;20042;-70
2022/04/09 04:26:21;;;;;;;10.32;2.30;;;;;;;1.62;84.62;100738.53;5095858;28;20051;-71
2022/04/09 04:28:48;;;;;;;10.98;2.53;;;;;;;1.64;85.20;100747.44;5097393;28;20164;-72
2022/04/09 04:31:16;;;;;;;11.30;2.63;;;;;;;1.64;85.12;100758.16;5082402;28;20058;-70
2022/04/09 04:33:42;;;;;;;6.82;2.60;;;;;;;1.63;84.69;100753.69;5102359;28;20034;-70
2022/04/09 04:36:07;;;;;;;8.70;2.00;;;;;;;1.62;84.97;100751.94;5106563;28;20031;-69
2022/04/09 04:38:37;;;;;;;16.75;2.95;;;;;;;1.62;85.11;100755.50;5101132;28;20484;-71
2022/04/09 04:41:04;;;;;;;12.38;1.80;;;;;;;1.62;84.97;100771.59;5107957;28;20043;-71
2022/04/09 04:43:31;;;;;;;9.82;1.75;;;;;;;1.63;85.17;100761.72;5099249;28;20047;-70
2022/04/09 04:45:59;;;;;;;12.40;2.42;;;;;;;1.61;85.13;100767.16;5090607;28;20482;-70
2022/04/09 04:48:25;;;;;;;9.30;1.52;;;;;;;1.62;85.04;100773.41;5110319;28;20032;-72
2022/04/09 04:50:51;;;;;;;8.38;2.53;;;;;;;1.60;84.48;100772.59;5092263;28;20035;-69
2022/04/09 04:53:16;;;;;;;10.95;2.38;;;;;;;1.62;85.17;100778.75;5093562;28;20023;-71
2022/04/09 04:55:49;;;;;;;5.07;1.80;;;;;;;1.60;84.87;100783.31;5094031;28;20040;-71
2022/04/09 04:58:19;;;;;;;5.40;1.98;;;;;;;1.62;85.42;100787.69;5107587;28;20521;-71
2022/04/09 05:00:51;;;;;;;16.17;2.47;;;;;;;1.65;85.31;100787.56;5108969;28;20027;-69
2022/04/09 05:03:18;;;;;;;12.05;2.08;;;;;;;1.66;85.00;100796.50;5097881;28;20034;-70
2022/04/09 05:05:54;;;;;;;8.43;2.35;;;;;;;1.68;85.71;100789.25;5097667;28;20160;-69
2022/04/09 05:08:20;;;;;;;5.43;2.15;;;;;;;1.75;85.28;100809.56;5098359;28;20031;-70
2022/04/09 05:10:46;;;;;;;10.25;2.15;;;;;;;1.76;85.57;100801.44;5107866;28;20491;-72
2022/04/09 05:13:14;;;;;;;9.35;2.10;;;;;;;1.76;84.81;100814.00;5106126;28;20385;-71
2022/04/09 05:15:40;;;;;;;9.70;2.30;;;;;;;1.76;84.72;100804.13;5094488;28;20043;-72
2022/04/09 05:18:06;;;;;;;13.00;2.22;;;;;;;1.85;84.54;100818.16;5097338;28;20042;-73
2022/04/09 05:20:34;;;;;;;9.10;2.00;;;;;;;1.89;84.56;100827.84;5094485;28;20019;-70
2022/04/09 05:23:03;;;;;;;16.52;2.30;;;;;;;1.94;84.24;100834.78;5094127;28;20036;-71
2022/04/09 05:25:31;;;;;;;10.45;2.40;;;;;;;1.99;84.18;100835.47;5098383;28;20073;-70
2022/04/09 05:28:02;;;;;;;7.15;2.22;;;;;;;2.02;83.96;100843.41;5100142;28;20032;-69
2022/04/09 05:30:33;;;;;;;10.88;3.25;;;;;;;2.09;83.97;100845.84;5092489;28;20024;-70
2022/04/09 05:32:59;;;;;;;9.68;1.98;;;;;;;2.11;83.58;100846.69;5087128;28;20548;-69
2022/04/09 05:35:24;;;;;;;9.77;2.08;;;;;;;2.15;83.51;100854.56;5090528;28;20031;-71
2022/04/09 05:37:53;;;;;;;12.75;2.47;;;;;;;2.16;83.56;100850.09;5079485;28;20147;-70
2022/04/09 05:40:22;;;;;;;9.40;2.72;;;;;;;2.19;83.61;100858.00;5084026;28;20028;-70
2022/04/09 05:42:49;;;;;;;7.65;2.25;;;;;;;2.20;83.38;100857.97;5108794;28;20024;-72
2022/04/09 05:45:16;;;;;;;14.02;2.45;;;;;;;2.30;83.39;100869.22;5097795;28;20023;-70
2022/04/09 05:47:46;;;;;;;12.70;2.10;;;;;;;2.47;83.14;100877.50;5108674;28;20027;-73
2022/04/09 05:50:14;;;;;;;7.70;2.30;;;;;;;2.62;82.65;100873.34;5103817;28;20051;-73
2022/04/09 05:52:42;;;;;;;10.40;2.00;;;;;;;2.72;81.94;100876.53;5094587;28;20042;-69
2022/04/09 05:55:08;;;;;;;17.27;2.47;;;;;;;2.82;82.20;100880.63;5096453;28;20027;-72
2022/04/09 05:57:34;;;;;;;8.40;2.00;;;;;;;3.03;81.81;100881.53;5094288;28;20106;-70
2022/04/09 06:00:07;;;;;;;14.20;3.17;;;;;;;3.25;81.07;100882.41;5095449;28;20032;-70
2022/04/09 06:02:41;;;;;;;9.32;1.75;;;;;;;3.30;80.82;100891.16;5092375;28;20043;-71
2022/04/09 06:05:08;;;;;;;12.88;2.05;;;;;;;3.32;81.08;100902.75;5088676;28;20043;-70
2022/04/09 06:07:35;;;;;;;13.25;2.58;;;;;;;3.35;80.95;100904.41;5078516;28;20020;-71
2022/04/09 06:10:06;;;;;;;16.23;2.40;;;;;;;3.43;80.83;100904.09;5075851;28;20483;-70
2022/04/09 06:12:34;;;;;;;12.52;2.33;;;;;;;3.50;81.00;100911.84;5092690;28;20040;-70
2022/04/09 06:15:05;;;;;;;6.30;2.10;;;;;;;3.58;80.72;100911.50;5091055;28;20514;-72
2022/04/09 06:17:40;;;;;;;10.13;3.13;;;;;;;3.75;80.35;100911.69;5092059;28;20481;-73
2022/04/09 06:20:09;;;;;;;12.07;2.40;;;;;;;3.79;80.12;100918.69;5092470;28;20054;-69
2022/04/09 06:22:34;;;;;;;10.02;2.25;;;;;;;3.87;80.56;100930.91;5074035;28;20502;-72
2022/04/09 06:25:00;;;;;;;10.73;2.00;;;;;;;3.96;80.44;100930.50;5091125;28;20028;-69
2022/04/09 06:27:26;;;;;;;13.02;2.35;;;;;;;4.21;80.03;100949.16;5091153;28;20020;-72
2022/04/09 06:29:52;;;;;;;6.07;2.08;;;;;;;4.46;79.62;100955.19;5093488;28;20114;-69
2022/04/09 06:32:18;;;;;;;7.35;2.10;;;;;;;4.49;79.45;100946.09;5103389;28;20107;-69
2022/04/09 06:34:44;;;;;;;11.68;2.28;;;;;;;4.44;79.41;100954.41;5092960;28;20115;-69
2022/04/09 06:37:16;;;;;;;11.80;2.08;;;;;;;4.43;79.62;100951.75;5095774;28;20028;-73
2022/04/09 06:39:42;;;;;;;13.20;3.05;;;;;;;4.41;79.51;100951.81;5094078;28;20073;-68
2022/04/09 06:42:07;;;;;;;8.18;2.38;;;;;;;4.51;79.14;100953.16;5079684;28;20048;-70
2022/04/09 06:44:58;;;;;;;7.97;1.90;;;;;;;4.60;79.38;100955.44;5098573;28;20426;-70
2022/04/09 06:47:27;;;;;;;6.63;2.30;;;;;;;4.82;79.39;100957.13;5091699;28;20501;-73
2022/04/09 06:50:00;;;;;;;9.32;2.28;;;;;;;5.11;78.95;100961.13;5100779;28;20032;-70
2022/04/09 06:52:29;;;;;;;9.38;2.40;;;;;;;5.38;77.93;100964.34;5099106;28;20020;-69
2022/04/09 06:55:19;;;;;;;8.32;2.47;;;;;;;5.33;77.45;100964.56;5103083;28;20505;-72
2022/04/09 06:57:47;;;;;;;8.93;2.35;;;;;;;5.25;77.77;100960.47;5096654;28;20073;-73
2022/04/09 07:00:16;;;;;;;10.48;3.00;;;;;;;5.21;78.28;100966.97;5091314;28;20027;-70
2022/04/09 07:02:42;;;;;;;12.15;2.85;;;;;;;5.16;78.09;100980.66;5102086;28;20082;-69
2022/04/09 07:05:08;;;;;;;15.05;3.42;;;;;;;5.12;78.49;100992.53;5111395;28;20027;-72
2022/04/09 07:07:34;;;;;;;12.93;3.45;;;;;;;5.07;79.27;101014.34;5101687;28;20638;-69
2022/04/09 07:10:09;;;;;;;10.82;1.98;;;;;;;4.79;78.70;100995.88;5102351;28;20496;-71
2022/04/09 07:12:34;;;;;;;9.07;2.50;;;;;;;4.61;80.69;101024.53;5112783;28;20395;-69
2022/04/09 07:15:01;;;;;;;8.05;2.42;;;;;;;4.50;81.49;101013.38;5112437;28;20053;-74
2022/04/09 07:17:26;;;;;;;13.18;2.55;;;;;;;4.51;81.94;101015.13;5110222;28;20031;-72
2022/04/09 07:19:56;;;;;;;13.68;2.50;;;;;;;4.58;82.67;101018.44;5104557;28;20036;-71
2022/04/09 07:22:21;;;;;;;10.38;3.45;;;;;;;4.78;82.71;101017.50;5103555;28;20036;-72
2022/04/09 07:24:47;;;;;;;7.07;1.90;;;;;;;4.84;82.83;101012.72;5103789;28;20074;-71
2022/04/09 07:27:12;;;;;;;6.45;2.28;;;;;;;5.13;81.50;101021.28;5110861;28;20451;-69
2022/04/09 07:29:38;;;;;;;7.53;2.22;;;;;;;5.77;81.33;101028.94;5092441;28;20445;-69
2022/04/09 07:32:03;;;;;;;14.23;2.30;;;;;;;6.39;78.18;101035.72;5108436;28;20499;-69
2022/04/09 07:34:29;;;;;;;8.23;2.40;;;;;;;6.78;76.68;101029.16;5103898;28;20035;-68
2022/04/09 07:36:54;;;;;;;10.98;2.28;;;;;;;6.93;75.75;101024.75;5105947;28;20035;-71
2022/04/09 07:39:19;;;;;;;14.25;2.63;;;;;;;7.23;76.51;101033.03;5104766;28;20039;-72
2022/04/09 07:41:45;;;;;;;11.43;2.17;;;;;;;7.65;75.11;101026.16;5104716;28;20023;-68
2022/04/09 07:44:10;;;;;;;16.20;3.45;;;;;;;8.36;73.48;101026.47;5108089;28;20407;-73
2022/04/09 07:46:36;;;;;;;9.05;1.88;;;;;;;8.92;69.08;101026.66;5090936;28;20122;-69
2022/04/09 07:49:01;;;;;;;11.20;2.38;;;;;;;9.01;68.84;101026.09;5101099;28;20068;-69
2022/04/09 07:51:26;;;;;;;13.10;2.75;;;;;;;8.99;68.46;101029.84;5106653;28;20782;-71
2022/04/09 07:53:52;;;;;;;7.20;1.88;;;;;;;9.07;70.25;101036.53;5096397;28;20407;-73
2022/04/09 07:56:17;;;;;;;5.57;2.10;;;;;;;9.15;69.40;101036.94;5094902;28;20123;-71
2022/04/09 07:58:43;;;;;;;10.38;2.08;;;;;;;9.27;68.95;101035.25;5111411;28;20052;-73
2022/04/09 08:01:08;;;;;;;7.75;2.00;;;;;;;9.31;68.53;101042.25;5110174;28;20094;-70
2022/04/09 08:03:34;;;;;;;10.27;2.15;;;;;;;9.22;67.79;101034.69;5085795;28;20118;-73
2022/04/09 08:05:59;;;;;;;9.25;1.77;;;;;;;9.41;67.96;101035.25;5103371;28;20084;-69
2022/04/09 08:08:24;;;;;;;13.55;2.60;;;;;;;9.63;67.23;101042.88;5094126;28;20104;-74
2022/04/09 08:10:51;;;;;;;10.75;2.35;;;;;;;9.74;66.67;101034.00;5080855;28;20048;-69
2022/04/09 08:13:17;;;;;;;9.00;2.25;;;;;;;9.91;65.53;101041.06;5094884;28;20535;-69
2022/04/09 08:15:42;;;;;;;16.42;5.03;;;;;;;10.00;64.54;101035.00;5097082;28;20129;-68
2022/04/09 08:18:09;;;;;;;9.45;2.45;;;;;;;9.92;62.99;101035.50;5109683;28;20027;-71
2022/04/09 08:20:35;;;;;;;11.38;2.70;;;;;;;9.94;64.40;101035.44;5096968;28;20024;-70
2022/04/09 08:23:00;;;;;;;8.45;2.33;;;;;;;9.96;64.90;101031.63;5093906;28;20085;-73
2022/04/09 08:25:26;;;;;;;9.48;2.30;;;;;;;9.76;59.78;101040.25;5089145;28;20052;-70
2022/04/09 08:27:53;;;;;;;5.40;2.35;;;;;;;9.62;60.97;101052.00;5089240;28;20043;-71
2022/04/09 08:30:19;;;;;;;8.77;2.25;;;;;;;9.44;60.63;101045.06;5089199;28;20036;-71
2022/04/09 08:32:45;;;;;;;6.53;2.00;;;;;;;9.19;60.97;101060.19;5090156;28;20415;-73
2022/04/09 08:35:11;;;;;;;6.55;1.77;;;;;;;8.96;61.02;101058.06;5089849;28;20032;-71
2022/04/09 08:37:36;;;;;;;6.80;1.77;;;;;;;8.83;59.08;101057.94;5091033;28;20042;-71
2022/04/09 08:40:03;;;;;;;6.07;1.80;;;;;;;8.68;62.84;101058.91;5096517;28;20023;-69
2022/04/09 08:42:30;;;;;;;8.43;1.80;;;;;;;8.88;61.35;101060.38;5090500;28;20474;-69
2022/04/09 08:44:55;;;;;;;9.52;1.88;;;;;;;9.19;59.88;101073.78;5089448;28;20064;-72
2022/04/09 08:47:25;;;;;;;4.50;1.92;;;;;;;9.35;59.86;101073.66;5089354;28;20153;-71
2022/04/09 08:49:51;;;;;;;5.80;1.98;;;;;;;9.38;58.64;101076.19;5091025;28;20028;-69
2022/04/09 08:52:16;;;;;;;5.60;1.23;;;;;;;9.43;57.34;101076.78;5089642;28;20528;-70
2022/04/09 08:54:42;;;;;;;4.55;1.40;;;;;;;9.16;55.12;101092.97;5088650;28;20390;-71
2022/04/09 08:57:08;;;;;;;2.22;1.38;;;;;;;8.60;54.80;101107.28;5088756;28;20483;-70
2022/04/09 08:59:33;;;;;;;4.28;1.08;;;;;;;8.10;57.74;101111.97;5093659;28;20039;-72
2022/04/09 09:01:59;;;;;;;1.95;1.20;;;;;;;7.58;62.90;101114.94;5094774;28;20447;-71
2022/04/09 09:04:25;;;;;;;4.25;1.40;;;;;;;7.23;64.29;101113.28;5091741;28;20032;-67
2022/04/09 09:06:50;;;;;;;4.25;1.80;;;;;;;7.05;63.15;101107.94;5095014;28;20043;-69
2022/04/09 09:09:24;;;;;;;3.35;1.30;;;;;;;7.02;65.26;101121.63;5093612;28;20059;-69
2022/04/09 09:11:50;;;;;;;5.28;1.20;;;;;;;7.04;64.76;101119.72;5087196;28;20050;-69
2022/04/09 09:14:29;;;;;;;4.20;1.58;;;;;;;7.40;66.11;101116.84;5089019;28;20043;-72
2022/04/09 09:16:58;;;;;;;3.95;1.60;;;;;;;7.85;63.52;101131.50;5088225;28;20036;-71
2022/04/09 09:19:48;;;;;;;1.92;1.05;;;;;;;8.07;63.83;101152.81;5093179;28;20517;-68
2022/04/09 09:22:18;;;;;;;1.55;0.85;;;;;;;7.71;62.54;101163.03;5088489;28;20107;-73
2022/04/09 09:24:43;;;;;;;2.83;0.85;;;;;;;7.26;64.44;101172.66;5088991;28;20368;-71
2022/04/09 09:27:09;;;;;;;1.83;0.80;;;;;;;6.89;65.19;101164.66;5089502;28;20057;-70
2022/04/09 09:29:36;;;;;;;1.83;0.85;;;;;;;6.39;64.46;101164.56;5089140;28;20082;-70
2022/04/09 09:32:04;;;;;;;1.83;0.77;;;;;;;6.26;62.38;101144.50;5093234;28;20111;-71
2022/04/09 09:34:30;;;;;;;2.58;1.10;;;;;;;5.82;64.35;101142.97;5100964;28;20043;-69
2022/04/09 09:36:56;;;;;;;2.25;1.17;;;;;;;5.86;66.44;101141.00;5096231;28;20528;-70
2022/04/09 09:39:23;;;;;;;2.45;0.95;;;;;;;5.92;66.50;101138.03;5098636;28;20044;-74
2022/04/09 09:41:50;;;;;;;2.55;1.10;;;;;;;6.00;67.22;101151.19;5091915;28;20521;-70
2022/04/09 09:44:16;;;;;;;1.67;1.38;;;;;;;5.99;67.46;101138.63;5091045;28;20101;-69
2022/04/09 09:46:43;;;;;;;2.38;1.42;;;;;;;6.12;67.13;101146.06;5097284;28;20036;-70
2022/04/09 09:49:09;;;;;;;3.55;1.50;;;;;;;6.54;69.77;101150.28;5093179;28;20391;-67
2022/04/09 09:51:35;;;;;;;1.55;1.45;;;;;;;6.97;68.14;101144.47;5094070;28;20036;-71
2022/04/09 09:54:11;;;;;;;5.35;1.30;;;;;;;7.44;67.70;101133.78;5097963;28;20028;-69
2022/04/09 09:56:41;;;;;;;8.50;2.45;;;;;;;7.89;65.50;101137.63;5092170;28;20031;-73
2022/04/09 09:59:09;;;;;;;4.80;1.58;;;;;;;8.36;68.10;101134.00;5097450;28;20052;-70
2022/04/09 10:01:38;;;;;;;4.90;1.85;;;;;;;8.69;61.33;101131.16;5093847;28;20039;-73
2022/04/09 10:04:04;;;;;;;3.72;1.50;;;;;;;9.06;64.96;101137.06;5091630;28;20031;-68
2022/04/09 10:06:32;;;;;;;7.05;1.80;;;;;;;9.51;65.45;101144.16;5091537;28;20039;-73
2022/04/09 10:08:58;;;;;;;5.85;2.30;;;;;;;9.68;62.97;101134.94;5081036;28;20038;-73
2022/04/09 10:11:25;;;;;;;9.02;1.77;;;;;;;9.68;60.36;101137.66;5097921;28;20111;-69
2022/04/09 10:13:54;;;;;;;7.35;1.67;;;;;;;9.80;60.46;101141.44;5092382;28;20040;-71
2022/04/09 10:16:22;;;;;;;4.15;1.55;;;;;;;10.22;60.51;101137.78;5098335;28;20111;-73
2022/04/09 10:18:49;;;;;;;4.28;1.48;;;;;;;10.65;56.47;101137.63;5094066;28;20380;-69
2022/04/09 10:21:15;;;;;;;1.90;1.00;;;;;;;11.02;55.28;101140.53;5091389;28;20078;-72
2022/04/09 10:23:42;;;;;;;3.47;1.10;;;;;;;11.16;50.22;101138.59;5090653;28;20047;-68
2022/04/09 10:26:08;;;;;;;3.40;1.17;;;;;;;11.12;51.65;101147.09;5105787;28;20040;-72
2022/04/09 10:28:36;;;;;;;4.70;1.13;;;;;;;10.96;50.06;101139.13;5094870;28;20032;-72
2022/04/09 10:31:22;;;;;;;2.75;1.02;;;;;;;11.13;49.84;101141.53;5094079;28;20024;-69
2022/04/09 10:34:02;;;;;;;4.18;0.98;;;;;;;11.56;49.92;101130.28;5107457;27;20043;-71
2022/04/09 10:36:39;;;;;;;2.65;1.25;;;;;;;11.66;49.15;101146.88;5092091;28;20113;-73
2022/04/09 10:39:26;;;;;;;2.78;0.80;;;;;;;11.62;48.67;101150.81;5095485;28;20030;-69
2022/04/09 10:41:54;;;;;;;4.43;1.10;;;;;;;11.51;44.68;101148.81;5091509;28;20418;-72
2022/04/09 10:44:44;;;;;;;3.17;1.27;;;;;;;11.48;47.31;101159.97;5092347;28;20103;-68
2022/04/09 10:47:12;;;;;;;2.05;1.30;;;;;;;11.42;45.21;101149.47;5091755;28;20027;-72
2022/04/09 10:49:37;;;;;;;3.30;1.10;;;;;;;11.44;41.40;101139.38;5097804;28;20035;-72
2022/04/09 10:52:16;;;;;;;1.98;0.95;;;;;;;11.29;43.85;101135.03;5099583;28;20040;-68
2022/04/09 10:55:22;;;;;;;5.22;0.98;;;;;;;11.31;43.24;101161.16;5104116;28;20043;-73
2022/04/09 10:57:49;;;;;;;1.60;0.98;;;;;;;11.32;46.68;101162.88;5107396;28;20048;-68
2022/04/09 11:00:23;;;;;;;2.70;1.20;;;;;;;11.21;43.95;101160.94;5103885;28;20035;-71
2022/04/09 11:03:15;;;;;;;3.75;1.05;;;;;;;11.11;45.77;101153.53;5110504;28;20496;-68
2022/04/09 11:05:43;;;;;;;2.13;1.23;;;;;;;10.96;43.99;101167.22;5099857;28;20024;-67
2022/04/09 11:08:14;;;;;;;1.33;0.90;;;;;;;10.70;43.59;101177.16;5089586;28;20024;-68
2022/04/09 11:10:42;;;;;;;1.60;0.80;;;;;;;10.72;44.65;101169.78;5105299;28;20392;-72
2022/04/09 11:13:12;;;;;;;6.38;1.50;;;;;;;10.90;46.65;101150.41;5095865;28;20036;-72
2022/04/09 11:15:39;;;;;;;1.77;0.90;;;;;;;10.77;41.01;101161.28;5102637;28;20479;-70
2022/04/09 11:18:05;;;;;;;1.85;0.90;;;;;;;10.78;43.61;101165.75;5095692;28;20126;-72
2022/04/09 11:20:36;;;;;;;2.30;0.90;;;;;;;10.85;43.49;101158.91;5092772;28;20406;-72
2022/04/09 11:23:10;;;;;;;4.13;1.10;;;;;;;10.79;42.31;101161.19;5093729;27;20040;-68
2022/04/09 11:25:40;;;;;;;2.13;0.95;;;;;;;10.79;43.56;101182.94;5092255;28;20126;-72
2022/04/09 11:28:13;;;;;;;3.00;1.20;;;;;;;10.85;41.22;101168.91;5084660;28;20027;-68
2022/04/09 11:30:51;;;;;;;1.63;1.00;;;;;;;11.11;45.25;101167.13;5091031;28;20085;-73
2022/04/09 11:33:17;;;;;;;2.25;0.90;;;;;;;11.36;43.54;101167.13;5091567;28;20039;-73
2022/04/09 11:35:43;;;;;;;1.73;0.90;;;;;;;11.39;38.30;101164.22;5087700;28;20031;-71